Time;durP1;ratioP1;P1;durP2;ratioP2;P2;SDS_P1;SDS_P2;PMS_P1;PMS_P2;Temp;Humidity;BMP_temperature;BMP_pressure;BME280_temperature;BME280_humidity;BME280_pressure;Samples;Min_cycle;Max_cycle;Signal;HPM_P1;HPM_P2
2021/07/20 00:00:55;;;;;;;14.25;11.32;;;;;;;;;;5075064;28;20090;-44
2021/07/20 00:03:21;;;;;;;16.60;13.20;;;;;;;;;;5074259;28;20027;-47
2021/07/20 00:05:49;;;;;;;15.40;11.68;;;;;;;;;;5074954;28;20078;-45
2021/07/20 00:08:15;;;;;;;12.90;10.07;;;;;;;;;;5074889;28;20022;-44
2021/07/20 00:10:44;;;;;;;18.60;11.45;;;;;;;;;;5074985;28;20017;-44
2021/07/20 00:13:10;;;;;;;18.73;15.57;;;;;;;;;;5074757;28;20058;-44
2021/07/20 00:15:37;;;;;;;11.90;10.30;;;;;;;;;;5074332;28;20040;-44
2021/07/20 00:18:06;;;;;;;15.05;10.98;;;;;;;;;;5074615;28;20032;-44
2021/07/20 00:20:35;;;;;;;17.67;13.35;;;;;;;;;;5074606;28;20096;-44
2021/07/20 00:23:01;;;;;;;20.23;15.60;;;;;;;;;;5074439;28;20052;-46
2021/07/20 00:25:27;;;;;;;21.05;16.00;;;;;;;;;;5074684;28;20039;-43
2021/07/20 00:27:53;;;;;;;16.10;12.40;;;;;;;;;;5074488;28;20095;-47
2021/07/20 00:30:19;;;;;;;13.70;11.23;;;;;;;;;;5074528;28;20024;-46
2021/07/20 00:32:45;;;;;;;12.50;10.55;;;;;;;;;;5074188;28;20029;-47
2021/07/20 00:35:12;;;;;;;16.33;10.90;;;;;;;;;;5074418;28;20042;-45
2021/07/20 00:37:38;;;;;;;25.08;21.25;;;;;;;;;;5074166;28;20028;-46
2021/07/20 00:40:11;;;;;;;23.08;16.90;;;;;;;;;;5074126;28;20461;-45
2021/07/20 00:42:37;;;;;;;13.43;11.35;;;;;;;;;;5074344;28;20055;-46
2021/07/20 00:45:05;;;;;;;15.52;12.57;;;;;;;;;;5074181;28;20028;-44
2021/07/20 00:47:31;;;;;;;16.95;11.05;;;;;;;;;;5074228;28;20520;-44
2021/07/20 00:49:57;;;;;;;14.38;11.50;;;;;;;;;;5073997;28;20083;-47
2021/07/20 00:52:24;;;;;;;15.20;11.40;;;;;;;;;;5074028;28;20096;-46
2021/07/20 00:54:50;;;;;;;16.10;13.02;;;;;;;;;;5074096;28;20031;-46
2021/07/20 00:57:16;;;;;;;17.63;13.65;;;;;;;;;;5073927;28;20047;-47
2021/07/20 00:59:42;;;;;;;18.42;14.73;;;;;;;;;;5073841;28;20031;-45
2021/07/20 01:02:08;;;;;;;15.45;10.55;;;;;;;;;;5073820;28;20025;-48
2021/07/20 01:04:35;;;;;;;17.65;11.43;;;;;;;;;;5073752;28;20028;-49
2021/07/20 01:07:01;;;;;;;10.38;8.82;;;;;;;;;;5073596;28;20243;-47
2021/07/20 01:09:28;;;;;;;10.70;9.07;;;;;;;;;;5073715;28;20028;-48
2021/07/20 01:11:55;;;;;;;10.07;8.90;;;;;;;;;;5073620;28;20465;-47
2021/07/20 01:14:22;;;;;;;12.43;8.73;;;;;;;;;;5072407;28;20036;-48
2021/07/20 01:16:49;;;;;;;10.10;8.57;;;;;;;;;;5073566;28;20079;-48
2021/07/20 01:19:16;;;;;;;12.05;8.27;;;;;;;;;;5073545;28;20031;-48
2021/07/20 01:21:43;;;;;;;10.27;7.88;;;;;;;;;;5073408;28;20039;-48
2021/07/20 01:24:13;;;;;;;10.80;7.75;;;;;;;;;;5073502;28;20074;-47
2021/07/20 01:26:39;;;;;;;13.73;7.60;;;;;;;;;;5073582;28;20049;-46
2021/07/20 01:29:06;;;;;;;12.80;9.60;;;;;;;;;;5073397;28;20024;-48
2021/07/20 01:31:35;;;;;;;15.75;10.77;;;;;;;;;;5073565;28;20502;-49
2021/07/20 01:34:02;;;;;;;20.85;14.00;;;;;;;;;;5073443;28;20052;-45
2021/07/20 01:36:30;;;;;;;19.75;15.48;;;;;;;;;;5073244;28;20040;-49
2021/07/20 01:38:56;;;;;;;17.88;11.50;;;;;;;;;;5073348;28;20024;-48
2021/07/20 01:41:23;;;;;;;24.05;16.02;;;;;;;;;;5073591;28;20024;-48
2021/07/20 01:43:52;;;;;;;12.57;10.77;;;;;;;;;;5073363;28;20028;-47
2021/07/20 01:46:19;;;;;;;18.42;13.90;;;;;;;;;;5073179;28;20033;-45
2021/07/20 01:48:47;;;;;;;31.50;20.02;;;;;;;;;;5073307;28;20465;-48
2021/07/20 01:51:14;;;;;;;16.35;11.52;;;;;;;;;;5073287;28;20032;-47
2021/07/20 01:53:41;;;;;;;17.98;10.32;;;;;;;;;;5073343;28;20385;-46
2021/07/20 01:56:13;;;;;;;22.10;17.50;;;;;;;;;;5073187;28;20075;-47
2021/07/20 01:58:42;;;;;;;22.60;17.65;;;;;;;;;;5073382;28;20024;-48
2021/07/20 02:01:09;;;;;;;14.13;10.20;;;;;;;;;;5073128;28;20021;-46
2021/07/20 02:08:57;;;;;;;13.95;9.85;;;;;;;;;;5073488;28;20075;-48
2021/07/20 02:11:27;;;;;;;14.80;11.15;;;;;;;;;;5073209;28;20027;-47
2021/07/20 02:13:56;;;;;;;27.85;22.17;;;;;;;;;;5072904;28;20032;-46
2021/07/20 02:16:31;;;;;;;15.05;12.85;;;;;;;;;;5072844;28;20063;-46
2021/07/20 02:19:00;;;;;;;15.57;10.60;;;;;;;;;;5072917;28;20035;-44
2021/07/20 02:21:27;;;;;;;14.25;10.10;;;;;;;;;;5072935;28;20049;-46
2021/07/20 02:23:54;;;;;;;14.02;8.98;;;;;;;;;;5072887;28;20029;-44
2021/07/20 02:26:21;;;;;;;14.50;8.38;;;;;;;;;;5075484;28;20086;-46
2021/07/20 02:28:47;;;;;;;9.57;8.10;;;;;;;;;;5077011;28;20020;-45
2021/07/20 02:31:15;;;;;;;11.50;8.35;;;;;;;;;;5076783;28;20111;-44
2021/07/20 02:33:41;;;;;;;11.23;7.78;;;;;;;;;;5076515;28;20024;-45
2021/07/20 02:36:08;;;;;;;10.98;7.68;;;;;;;;;;5076594;28;20032;-48
2021/07/20 02:38:37;;;;;;;10.90;7.97;;;;;;;;;;5076563;28;20146;-44
2021/07/20 02:41:03;;;;;;;10.13;7.70;;;;;;;;;;5076553;28;20039;-48
2021/07/20 02:43:30;;;;;;;9.77;8.07;;;;;;;;;;5076490;28;20460;-46
2021/07/20 02:45:57;;;;;;;12.93;8.45;;;;;;;;;;5076205;28;20392;-45
2021/07/20 02:48:23;;;;;;;10.40;8.18;;;;;;;;;;5076364;28;20036;-45
2021/07/20 02:50:53;;;;;;;11.65;7.70;;;;;;;;;;5076525;28;20027;-47
2021/07/20 02:53:21;;;;;;;11.35;8.15;;;;;;;;;;5076462;28;20434;-46
2021/07/20 02:55:49;;;;;;;9.88;7.65;;;;;;;;;;5076239;28;20450;-46
2021/07/20 02:58:16;;;;;;;11.40;8.35;;;;;;;;;;5076043;28;20025;-45
2021/07/20 03:00:43;;;;;;;12.68;7.82;;;;;;;;;;5076246;28;20488;-47
2021/07/20 03:03:10;;;;;;;12.15;7.68;;;;;;;;;;5076358;28;20024;-45
2021/07/20 03:05:37;;;;;;;24.17;18.23;;;;;;;;;;5076455;28;20423;-43
2021/07/20 03:08:04;;;;;;;18.52;13.25;;;;;;;;;;5076265;28;20137;-45
2021/07/20 03:10:31;;;;;;;18.85;13.55;;;;;;;;;;5075987;28;20025;-45
2021/07/20 03:13:08;;;;;;;19.33;13.93;;;;;;;;;;5075858;28;20024;-45
2021/07/20 03:15:37;;;;;;;16.63;10.65;;;;;;;;;;5075652;28;20048;-46
2021/07/20 03:18:03;;;;;;;12.75;9.38;;;;;;;;;;5076222;28;20427;-48
2021/07/20 03:20:30;;;;;;;14.80;9.07;;;;;;;;;;5075915;28;20472;-46
2021/07/20 03:22:58;;;;;;;13.35;9.27;;;;;;;;;;5075835;28;20031;-48
2021/07/20 03:25:24;;;;;;;14.02;8.20;;;;;;;;;;5075808;28;20024;-48
2021/07/20 03:27:51;;;;;;;13.77;9.10;;;;;;;;;;5075631;28;20031;-46
2021/07/20 03:30:17;;;;;;;11.48;8.50;;;;;;;;;;5075842;28;20058;-48
2021/07/20 03:32:45;;;;;;;13.15;8.80;;;;;;;;;;5075869;28;20039;-47
2021/07/20 03:35:12;;;;;;;13.25;9.20;;;;;;;;;;5075528;28;20492;-45
2021/07/20 03:37:39;;;;;;;12.18;9.18;;;;;;;;;;5074669;28;20142;-48
2021/07/20 03:40:05;;;;;;;14.50;9.35;;;;;;;;;;5075416;28;20027;-47
2021/07/20 03:42:32;;;;;;;13.65;9.18;;;;;;;;;;5075449;28;20405;-47
2021/07/20 03:45:00;;;;;;;14.10;8.73;;;;;;;;;;5075222;28;20465;-47
2021/07/20 03:47:26;;;;;;;12.80;8.70;;;;;;;;;;5075442;28;20035;-45
2021/07/20 03:49:53;;;;;;;12.27;8.13;;;;;;;;;;5075224;28;20033;-47
2021/07/20 03:52:21;;;;;;;13.75;8.63;;;;;;;;;;5075537;28;20017;-48
2021/07/20 03:54:47;;;;;;;12.48;9.00;;;;;;;;;;5075325;28;20086;-47
2021/07/20 03:57:17;;;;;;;10.85;8.25;;;;;;;;;;5074938;28;20043;-44
2021/07/20 03:59:44;;;;;;;12.18;8.18;;;;;;;;;;5075265;28;20468;-46
2021/07/20 04:02:11;;;;;;;17.98;8.77;;;;;;;;;;5075087;28;20036;-45
2021/07/20 04:04:40;;;;;;;16.75;8.70;;;;;;;;;;5074909;28;20104;-48
2021/07/20 04:07:09;;;;;;;13.77;8.52;;;;;;;;;;5075069;28;20469;-47
2021/07/20 04:09:38;;;;;;;10.70;8.07;;;;;;;;;;5074972;28;20062;-49
2021/07/20 04:12:05;;;;;;;11.63;7.97;;;;;;;;;;5074859;28;20032;-49
2021/07/20 04:14:32;;;;;;;11.48;8.27;;;;;;;;;;5074859;28;20029;-53
2021/07/20 04:16:58;;;;;;;9.95;8.13;;;;;;;;;;5074846;28;20044;-45
2021/07/20 04:19:24;;;;;;;10.90;8.23;;;;;;;;;;5074711;28;20017;-46
2021/07/20 04:21:50;;;;;;;9.60;7.68;;;;;;;;;;5074785;28;20056;-45
2021/07/20 04:24:17;;;;;;;13.38;8.75;;;;;;;;;;5074883;28;20035;-46
2021/07/20 04:26:45;;;;;;;10.63;8.00;;;;;;;;;;5074562;28;20024;-47
2021/07/20 04:29:11;;;;;;;13.63;8.07;;;;;;;;;;5074817;28;20025;-46
2021/07/20 04:31:40;;;;;;;13.82;8.93;;;;;;;;;;5074340;28;20017;-47
2021/07/20 04:34:07;;;;;;;12.45;7.88;;;;;;;;;;5074558;28;20031;-46
2021/07/20 04:36:34;;;;;;;11.88;8.05;;;;;;;;;;5074499;28;20032;-44
2021/07/20 04:39:01;;;;;;;11.70;7.70;;;;;;;;;;5074525;28;20031;-46
2021/07/20 04:41:27;;;;;;;13.35;9.13;;;;;;;;;;5074453;28;20024;-44
2021/07/20 04:43:54;;;;;;;14.38;8.65;;;;;;;;;;5074359;28;20033;-43
2021/07/20 04:46:23;;;;;;;14.65;8.35;;;;;;;;;;5074394;28;20538;-43
2021/07/20 04:48:50;;;;;;;13.38;8.43;;;;;;;;;;5073960;28;20028;-47
2021/07/20 04:51:16;;;;;;;11.48;8.10;;;;;;;;;;5073971;28;20036;-43
2021/07/20 04:53:43;;;;;;;12.00;8.07;;;;;;;;;;5074035;28;20027;-45
2021/07/20 04:56:09;;;;;;;12.82;7.80;;;;;;;;;;5073748;28;20032;-44
2021/07/20 04:58:35;;;;;;;12.75;9.10;;;;;;;;;;5074069;28;20024;-44
2021/07/20 05:01:04;;;;;;;10.80;8.63;;;;;;;;;;5074171;28;20016;-44
2021/07/20 05:03:31;;;;;;;11.13;8.07;;;;;;;;;;5074092;28;20420;-46
2021/07/20 05:05:58;;;;;;;9.98;8.07;;;;;;;;;;5073814;28;20024;-46
2021/07/20 05:08:27;;;;;;;9.00;6.90;;;;;;;;;;5073677;28;20492;-44
2021/07/20 05:10:55;;;;;;;12.00;7.90;;;;;;;;;;5074029;28;20025;-45
2021/07/20 05:13:22;;;;;;;10.90;8.30;;;;;;;;;;5073672;28;20055;-44
2021/07/20 05:15:52;;;;;;;11.68;8.45;;;;;;;;;;5073397;28;20123;-49
2021/07/20 05:18:18;;;;;;;11.17;8.93;;;;;;;;;;5073672;28;20032;-48
2021/07/20 05:20:44;;;;;;;11.73;8.55;;;;;;;;;;5073687;28;20043;-44
2021/07/20 05:23:15;;;;;;;15.00;8.45;;;;;;;;;;5073501;28;20029;-44
2021/07/20 05:25:43;;;;;;;12.10;8.02;;;;;;;;;;5073528;28;20032;-44
2021/07/20 05:28:13;;;;;;;14.65;9.02;;;;;;;;;;5073646;28;20028;-44
2021/07/20 05:30:41;;;;;;;13.00;8.65;;;;;;;;;;5073605;28;20045;-46
2021/07/20 05:33:07;;;;;;;14.43;10.00;;;;;;;;;;5073561;28;20025;-44
2021/07/20 05:35:34;;;;;;;15.65;10.80;;;;;;;;;;5073324;28;20157;-44
2021/07/20 05:38:00;;;;;;;15.98;10.77;;;;;;;;;;5073478;28;20032;-47
2021/07/20 05:40:26;;;;;;;19.38;11.77;;;;;;;;;;5073394;28;20028;-43
2021/07/20 05:42:55;;;;;;;16.83;11.23;;;;;;;;;;5073512;28;20380;-46
2021/07/20 05:45:22;;;;;;;15.20;9.82;;;;;;;;;;5073459;28;20021;-44
2021/07/20 05:47:49;;;;;;;15.85;10.23;;;;;;;;;;5073707;28;20055;-45
2021/07/20 05:50:19;;;;;;;16.65;10.00;;;;;;;;;;5073208;28;20040;-45
2021/07/20 05:52:46;;;;;;;17.70;10.50;;;;;;;;;;5073374;28;20028;-44
2021/07/20 05:55:12;;;;;;;16.83;10.18;;;;;;;;;;5073202;28;20028;-45
2021/07/20 05:57:39;;;;;;;14.32;9.88;;;;;;;;;;5073167;28;20115;-45
2021/07/20 06:00:07;;;;;;;13.68;8.80;;;;;;;;;;5073802;28;20361;-47
2021/07/20 06:02:34;;;;;;;18.60;9.77;;;;;;;;;;5077661;28;20029;-44
2021/07/20 06:05:01;;;;;;;16.45;11.05;;;;;;;;;;5077308;28;20025;-45
2021/07/20 06:07:29;;;;;;;16.42;8.60;;;;;;;;;;5077162;28;20472;-44
2021/07/20 06:09:57;;;;;;;14.70;9.48;;;;;;;;;;5077256;28;20476;-45
2021/07/20 06:12:24;;;;;;;13.43;9.73;;;;;;;;;;5077500;28;20036;-45
2021/07/20 06:14:50;;;;;;;14.10;9.43;;;;;;;;;;5077068;28;20046;-45
2021/07/20 06:17:17;;;;;;;13.30;9.02;;;;;;;;;;5076991;28;20087;-44
2021/07/20 06:19:43;;;;;;;13.27;8.52;;;;;;;;;;5077011;28;20066;-47
2021/07/20 06:22:10;;;;;;;16.45;8.90;;;;;;;;;;5077148;28;20017;-45
2021/07/20 06:24:40;;;;;;;13.52;8.05;;;;;;;;;;5077111;28;20021;-48
2021/07/20 06:27:06;;;;;;;15.75;8.70;;;;;;;;;;5076939;28;20052;-46
2021/07/20 06:29:33;;;;;;;13.27;8.75;;;;;;;;;;5077009;28;20056;-45
2021/07/20 06:32:01;;;;;;;11.93;8.85;;;;;;;;;;5076994;28;20077;-48
2021/07/20 06:34:27;;;;;;;13.60;8.05;;;;;;;;;;5076904;28;20429;-47
2021/07/20 06:36:54;;;;;;;14.02;8.27;;;;;;;;;;5076509;28;20424;-46
2021/07/20 06:39:20;;;;;;;20.80;13.98;;;;;;;;;;5076695;28;20150;-48
2021/07/20 06:41:48;;;;;;;25.73;12.80;;;;;;;;;;5076738;28;20066;-47
2021/07/20 06:44:14;;;;;;;20.58;11.77;;;;;;;;;;5076603;28;20025;-47
2021/07/20 06:46:41;;;;;;;20.15;11.65;;;;;;;;;;5076691;28;20421;-48
2021/07/20 06:49:07;;;;;;;15.85;10.75;;;;;;;;;;5076703;28;20020;-46
2021/07/20 06:51:33;;;;;;;45.10;26.45;;;;;;;;;;5076317;28;20024;-45
2021/07/20 06:53:59;;;;;;;25.05;15.73;;;;;;;;;;5076589;28;20028;-47
2021/07/20 06:56:28;;;;;;;20.13;11.32;;;;;;;;;;5076377;28;20036;-46
2021/07/20 06:58:54;;;;;;;26.25;9.90;;;;;;;;;;5076397;28;20021;-44
2021/07/20 07:01:21;;;;;;;17.17;9.95;;;;;;;;;;5076375;28;20036;-46
2021/07/20 07:03:52;;;;;;;10.40;8.48;;;;;;;;;;5076431;28;20045;-45
2021/07/20 07:06:20;;;;;;;18.77;9.82;;;;;;;;;;5075969;28;20024;-45
2021/07/20 07:08:47;;;;;;;16.95;10.80;;;;;;;;;;5076385;28;20021;-45
2021/07/20 07:11:14;;;;;;;15.68;11.20;;;;;;;;;;5076014;28;20025;-45
2021/07/20 07:13:41;;;;;;;21.95;11.48;;;;;;;;;;5075921;28;20024;-44
2021/07/20 07:16:07;;;;;;;24.52;18.73;;;;;;;;;;5075806;28;20080;-46
2021/07/20 07:18:33;;;;;;;25.42;14.00;;;;;;;;;;5076085;28;20056;-44
2021/07/20 07:21:01;;;;;;;20.10;13.18;;;;;;;;;;5075752;28;20489;-45
2021/07/20 07:23:28;;;;;;;19.45;11.35;;;;;;;;;;5076019;28;20032;-46
2021/07/20 07:25:57;;;;;;;15.13;9.20;;;;;;;;;;5075798;28;20028;-46
2021/07/20 07:28:24;;;;;;;15.07;8.88;;;;;;;;;;5075946;28;20107;-45
2021/07/20 07:30:51;;;;;;;13.88;9.05;;;;;;;;;;5075727;28;20025;-45
2021/07/20 07:33:17;;;;;;;21.58;9.85;;;;;;;;;;5075725;28;20031;-49
2021/07/20 07:35:45;;;;;;;19.73;11.40;;;;;;;;;;5075331;28;20074;-46
2021/07/20 07:38:11;;;;;;;20.50;11.43;;;;;;;;;;5075652;28;20028;-47
2021/07/20 07:40:37;;;;;;;27.88;15.60;;;;;;;;;;5075852;28;20040;-47
2021/07/20 07:43:05;;;;;;;17.27;12.80;;;;;;;;;;5075521;28;20055;-45
2021/07/20 07:45:31;;;;;;;24.13;18.75;;;;;;;;;;5075343;28;20392;-47
2021/07/20 07:47:59;;;;;;;16.70;9.25;;;;;;;;;;5075660;28;20095;-47
2021/07/20 07:50:25;;;;;;;17.15;10.82;;;;;;;;;;5075242;28;20024;-46
2021/07/20 07:52:53;;;;;;;11.80;8.77;;;;;;;;;;5075784;28;20047;-46
2021/07/20 07:55:21;;;;;;;16.35;9.25;;;;;;;;;;5075334;28;20109;-48
2021/07/20 07:57:48;;;;;;;12.10;9.07;;;;;;;;;;5075272;28;20439;-48
2021/07/20 08:00:14;;;;;;;28.23;13.48;;;;;;;;;;5075051;28;20028;-47
2021/07/20 08:02:41;;;;;;;20.05;11.55;;;;;;;;;;5075149;28;20444;-47
2021/07/20 08:05:07;;;;;;;31.90;18.70;;;;;;;;;;5074920;28;20033;-48
2021/07/20 08:07:34;;;;;;;27.08;18.77;;;;;;;;;;5074903;28;20024;-48
2021/07/20 08:10:01;;;;;;;34.03;21.95;;;;;;;;;;5075050;28;20098;-48
2021/07/20 08:12:27;;;;;;;24.83;16.73;;;;;;;;;;5074911;28;20016;-47
2021/07/20 08:14:53;;;;;;;23.70;12.48;;;;;;;;;;5074767;28;20049;-47
2021/07/20 08:17:20;;;;;;;29.83;12.13;;;;;;;;;;5074741;28;20040;-46
2021/07/20 08:19:46;;;;;;;19.80;11.93;;;;;;;;;;5073503;28;20377;-46
2021/07/20 08:22:15;;;;;;;16.35;10.38;;;;;;;;;;5074839;28;20028;-49
2021/07/20 08:25:01;;;;;;;22.75;11.00;;;;;;;;;;5074160;28;20016;-46
2021/07/20 08:27:46;;;;;;;18.38;12.43;;;;;;;;;;5074379;28;20017;-46
2021/07/20 08:30:12;;;;;;;18.98;11.95;;;;;;;;;;5063363;28;20055;-44
2021/07/20 08:32:47;;;;;;;22.20;13.13;;;;;;;;;;5053120;28;20029;-46
2021/07/20 08:35:16;;;;;;;27.77;15.52;;;;;;;;;;5053131;28;20070;-45
2021/07/20 08:37:45;;;;;;;25.08;12.45;;;;;;;;;;5052916;28;20029;-48
2021/07/20 08:40:30;;;;;;;17.83;10.05;;;;;;;;;;5053604;28;20025;-46
2021/07/20 08:43:06;;;;;;;21.63;14.30;;;;;;;;;;5051928;28;20479;-46
2021/07/20 08:45:35;;;;;;;13.98;9.73;;;;;;;;;;5051402;28;20021;-47
2021/07/20 08:48:19;;;;;;;15.93;10.00;;;;;;;;;;5053681;28;20107;-45
2021/07/20 08:50:52;;;;;;;15.68;10.20;;;;;;;;;;5053125;28;20084;-44
2021/07/20 08:53:36;;;;;;;17.58;9.15;;;;;;;;;;5053689;28;20036;-47
2021/07/20 08:56:04;;;;;;;15.07;9.10;;;;;;;;;;5052854;28;20029;-46
2021/07/20 08:58:32;;;;;;;14.68;10.02;;;;;;;;;;5051222;28;20021;-46
2021/07/20 09:01:03;;;;;;;14.13;8.65;;;;;;;;;;5053557;28;20499;-47
2021/07/20 09:03:32;;;;;;;15.20;9.52;;;;;;;;;;5053517;28;20021;-47
2021/07/20 09:06:21;;;;;;;17.75;9.38;;;;;;;;;;5053298;28;20468;-47
2021/07/20 09:08:54;;;;;;;26.00;15.65;;;;;;;;;;5031125;28;20404;-45
2021/07/20 09:11:26;;;;;;;17.40;11.80;;;;;;;;;;5031290;28;20038;-43
2021/07/20 09:13:55;;;;;;;40.30;27.42;;;;;;;;;;5026007;28;20040;-45
2021/07/20 09:16:39;;;;;;;29.10;16.77;;;;;;;;;;5030359;28;20058;-45
2021/07/20 09:19:08;;;;;;;39.50;26.42;;;;;;;;;;5030092;28;20029;-46
2021/07/20 09:21:35;;;;;;;18.55;11.95;;;;;;;;;;5025890;28;20024;-46
2021/07/20 09:24:06;;;;;;;24.13;15.38;;;;;;;;;;5031139;28;20145;-46
2021/07/20 09:26:36;;;;;;;;;;;;;;;;;;5028697;28;20030;-44
2021/07/20 09:29:04;;;;;;;33.53;24.38;;;;;;;;;;5030968;28;20410;-47
2021/07/20 09:31:49;;;;;;;36.75;25.88;;;;;;;;;;5030821;28;20083;-48
2021/07/20 09:34:21;;;;;;;39.38;22.60;;;;;;;;;;5028499;28;20056;-46
2021/07/20 09:36:57;;;;;;;35.20;18.33;;;;;;;;;;5030104;28;20049;-46
2021/07/20 09:39:27;;;;;;;20.77;12.82;;;;;;;;;;5030679;28;20073;-47
2021/07/20 09:41:56;;;;;;;24.63;12.77;;;;;;;;;;5030877;28;20033;-48
2021/07/20 09:44:31;;;;;;;21.02;12.63;;;;;;;;;;5025868;28;20030;-47
2021/07/20 09:47:01;;;;;;;49.58;26.58;;;;;;;;;;5052273;28;20045;-45
2021/07/20 09:49:40;;;;;;;57.70;28.65;;;;;;;;;;5035693;28;20024;-47
2021/07/20 09:52:09;;;;;;;119.73;94.20;;;;;;;;;;5033122;28;20034;-51
2021/07/20 09:54:53;;;;;;;38.40;24.45;;;;;;;;;;5033395;28;20027;-52
2021/07/20 09:57:26;;;;;;;41.17;28.00;;;;;;;;;;5033259;28;20396;-44
2021/07/20 09:59:52;;;;;;;41.70;26.08;;;;;;;;;;5033188;28;20470;-50
2021/07/20 10:02:23;;;;;;;155.18;87.22;;;;;;;;;;5033087;28;20465;-48
2021/07/20 10:04:55;;;;;;;74.00;49.38;;;;;;;;;;5033134;28;20104;-48
2021/07/20 10:07:21;;;;;;;113.35;73.53;;;;;;;;;;5033006;28;20032;-46
2021/07/20 10:09:52;;;;;;;35.70;23.17;;;;;;;;;;5033042;28;20032;-46
2021/07/20 10:12:22;;;;;;;200.63;166.10;;;;;;;;;;5032997;28;20104;-49
2021/07/20 10:15:07;;;;;;;98.55;30.83;;;;;;;;;;5032479;28;20054;-46
2021/07/20 10:18:01;;;;;;;40.53;19.70;;;;;;;;;;5034842;28;20040;-53
2021/07/20 10:20:44;;;;;;;120.93;74.53;;;;;;;;;;5052001;28;20513;-52
2021/07/20 10:23:18;;;;;;;87.07;45.97;;;;;;;;;;5052969;28;20032;-51
2021/07/20 10:25:47;;;;;;;29.38;18.63;;;;;;;;;;5052743;28;20304;-43
2021/07/20 10:28:26;;;;;;;47.15;25.90;;;;;;;;;;5052899;28;20029;-49
2021/07/20 10:31:04;;;;;;;53.03;27.98;;;;;;;;;;5052839;28;20119;-44
2021/07/20 10:33:33;;;;;;;39.17;21.40;;;;;;;;;;5052631;28;20025;-43
2021/07/20 10:36:02;;;;;;;31.73;17.88;;;;;;;;;;5052587;28;20044;-47
2021/07/20 10:38:34;;;;;;;36.55;23.25;;;;;;;;;;5052625;28;20036;-45
2021/07/20 10:41:02;;;;;;;71.60;50.13;;;;;;;;;;5052790;28;20029;-47
2021/07/20 10:43:57;;;;;;;74.63;58.08;;;;;;;;;;5052944;28;20052;-43
2021/07/20 10:46:26;;;;;;;31.08;20.85;;;;;;;;;;5031481;28;20120;-50
2021/07/20 10:48:56;;;;;;;63.45;50.50;;;;;;;;;;5034219;28;20037;-51
2021/07/20 10:51:25;;;;;;;27.90;20.15;;;;;;;;;;5034321;28;20503;-46
2021/07/20 10:54:09;;;;;;;115.78;44.42;;;;;;;;;;5034294;28;20029;-43
2021/07/20 10:56:43;;;;;;;42.67;19.73;;;;;;;;;;5034098;28;20049;-43
2021/07/20 10:59:18;;;;;;;30.52;17.55;;;;;;;;;;5034153;28;20025;-43
2021/07/20 11:02:03;;;;;;;42.25;22.27;;;;;;;;;;5034190;28;20036;-43
2021/07/20 11:04:36;;;;;;;22.70;12.32;;;;;;;;;;5034204;28;20045;-46
2021/07/20 11:07:02;;;;;;;24.45;11.85;;;;;;;;;;5034011;28;20469;-47
2021/07/20 11:09:30;;;;;;;18.58;9.85;;;;;;;;;;5033949;28;20084;-45
2021/07/20 11:11:59;;;;;;;16.20;10.13;;;;;;;;;;5033851;28;20030;-44
2021/07/20 11:14:30;;;;;;;18.17;12.60;;;;;;;;;;5033533;28;20036;-48
2021/07/20 11:16:58;;;;;;;22.20;10.82;;;;;;;;;;5033616;28;20057;-44
2021/07/20 11:19:25;;;;;;;16.42;9.90;;;;;;;;;;5033940;28;20485;-46
2021/07/20 11:21:51;;;;;;;23.50;16.98;;;;;;;;;;5033846;28;20433;-45
2021/07/20 11:24:18;;;;;;;25.27;15.27;;;;;;;;;;5035803;28;20032;-45
2021/07/20 11:26:44;;;;;;;30.92;24.58;;;;;;;;;;5035510;28;20028;-45
2021/07/20 11:29:11;;;;;;;54.03;40.90;;;;;;;;;;5035628;28;20025;-46
2021/07/20 11:31:50;;;;;;;53.28;39.63;;;;;;;;;;5035577;28;20033;-45
2021/07/20 11:34:24;;;;;;;44.88;29.88;;;;;;;;;;5035731;28;20538;-46
2021/07/20 11:36:51;;;;;;;28.08;17.23;;;;;;;;;;5035428;28;20041;-45
2021/07/20 11:39:20;;;;;;;24.45;13.05;;;;;;;;;;5035425;28;20040;-47
2021/07/20 11:42:07;;;;;;;22.02;12.13;;;;;;;;;;5035367;28;20030;-46
2021/07/20 11:44:45;;;;;;;45.80;32.38;;;;;;;;;;5031402;28;20409;-46
2021/07/20 11:47:26;;;;;;;24.63;17.17;;;;;;;;;;5033890;28;20096;-50
2021/07/20 11:49:56;;;;;;;43.33;29.08;;;;;;;;;;5035242;28;20029;-44
2021/07/20 11:52:38;;;;;;;30.30;22.98;;;;;;;;;;5035253;28;20026;-43
2021/07/20 11:55:13;;;;;;;50.08;39.25;;;;;;;;;;5035160;28;20422;-45
2021/07/20 11:57:55;;;;;;;51.13;33.10;;;;;;;;;;5034356;28;20044;-46
2021/07/20 12:01:01;;;;;;;37.88;25.95;;;;;;;;;;5034874;28;20097;-46
2021/07/20 12:03:31;;;;;;;20.77;14.32;;;;;;;;;;5032692;28;20029;-45
2021/07/20 12:06:06;;;;;;;25.25;17.38;;;;;;;;;;5032809;28;20028;-48
2021/07/20 12:08:49;;;;;;;44.28;34.53;;;;;;;;;;5016292;28;20029;-48
2021/07/20 12:11:17;;;;;;;28.80;17.17;;;;;;;;;;5032839;28;20025;-47
2021/07/20 12:13:46;;;;;;;25.83;15.80;;;;;;;;;;5033551;28;20028;-49
2021/07/20 12:16:13;;;;;;;26.42;16.02;;;;;;;;;;5032409;28;20046;-47
2021/07/20 12:18:55;;;;;;;27.25;17.42;;;;;;;;;;5032653;28;20030;-49
2021/07/20 12:21:22;;;;;;;44.78;30.67;;;;;;;;;;5032660;28;20034;-47
2021/07/20 12:23:52;;;;;;;40.47;25.77;;;;;;;;;;5032697;28;20037;-46
2021/07/20 12:26:21;;;;;;;20.00;12.10;;;;;;;;;;5032432;28;20124;-46
2021/07/20 12:28:49;;;;;;;44.75;18.13;;;;;;;;;;5032428;28;20041;-51
2021/07/20 12:31:15;;;;;;;30.02;14.82;;;;;;;;;;5033501;28;20693;-48
2021/07/20 12:33:44;;;;;;;21.30;9.85;;;;;;;;;;5016310;28;20447;-46
2021/07/20 12:36:11;;;;;;;18.85;10.60;;;;;;;;;;5022211;28;20037;-52
2021/07/20 12:38:38;;;;;;;18.70;12.20;;;;;;;;;;5022373;28;20028;-49
2021/07/20 12:41:11;;;;;;;13.82;9.23;;;;;;;;;;5022256;28;20362;-45
2021/07/20 12:43:41;;;;;;;16.90;10.07;;;;;;;;;;5024547;28;20079;-47
2021/07/20 12:46:18;;;;;;;11.35;7.72;;;;;;;;;;5022096;28;20064;-45
2021/07/20 12:48:52;;;;;;;21.42;9.10;;;;;;;;;;5023553;28;20028;-45
2021/07/20 12:51:21;;;;;;;16.83;8.73;;;;;;;;;;5021973;28;20132;-49
2021/07/20 12:53:53;;;;;;;12.15;7.97;;;;;;;;;;5022814;28;20022;-44
2021/07/20 12:56:29;;;;;;;13.68;9.23;;;;;;;;;;5022355;28;20061;-46
2021/07/20 12:58:58;;;;;;;17.55;9.27;;;;;;;;;;5021493;28;20025;-50
2021/07/20 13:01:26;;;;;;;45.25;32.35;;;;;;;;;;5021976;28;20083;-45
2021/07/20 13:03:52;;;;;;;14.30;9.18;;;;;;;;;;5022133;28;20077;-44
2021/07/20 13:06:18;;;;;;;11.20;8.13;;;;;;;;;;5021575;28;20112;-45
2021/07/20 13:08:46;;;;;;;15.93;8.00;;;;;;;;;;5021774;28;20527;-44
2021/07/20 13:11:14;;;;;;;14.32;8.02;;;;;;;;;;5022994;28;20056;-43
2021/07/20 13:13:40;;;;;;;16.25;7.97;;;;;;;;;;5022850;28;20087;-43
2021/07/20 13:16:06;;;;;;;10.48;7.57;;;;;;;;;;5021188;28;20095;-43
2021/07/20 13:18:33;;;;;;;17.40;8.50;;;;;;;;;;5021800;28;20036;-43
2021/07/20 13:21:00;;;;;;;18.15;8.68;;;;;;;;;;5021832;28;20095;-43
2021/07/20 13:23:28;;;;;;;13.23;8.45;;;;;;;;;;5022715;28;20030;-43
2021/07/20 13:25:55;;;;;;;17.10;9.32;;;;;;;;;;5021625;28;20021;-45
2021/07/20 13:28:25;;;;;;;16.35;9.18;;;;;;;;;;5021279;28;20312;-44
2021/07/20 13:31:03;;;;;;;14.82;8.73;;;;;;;;;;5022433;28;20090;-43
2021/07/20 13:33:29;;;;;;;20.63;11.77;;;;;;;;;;5022048;28;20028;-47
2021/07/20 13:35:56;;;;;;;15.63;9.15;;;;;;;;;;5021154;28;20026;-44
2021/07/20 13:38:23;;;;;;;13.18;8.63;;;;;;;;;;5022520;28;20033;-44
2021/07/20 13:40:50;;;;;;;16.23;8.70;;;;;;;;;;5021168;28;20108;-45
2021/07/20 13:43:16;;;;;;;14.32;7.85;;;;;;;;;;5021387;28;20401;-45
2021/07/20 13:45:43;;;;;;;16.55;8.57;;;;;;;;;;5021321;28;20050;-44
2021/07/20 13:48:11;;;;;;;77.82;51.25;;;;;;;;;;5021387;28;20091;-47
2021/07/20 13:50:40;;;;;;;33.97;23.95;;;;;;;;;;5021488;28;20091;-46
2021/07/20 13:53:07;;;;;;;25.75;15.75;;;;;;;;;;5022185;28;20021;-47
2021/07/20 13:55:33;;;;;;;42.35;27.90;;;;;;;;;;5021320;28;20121;-47
2021/07/20 13:58:04;;;;;;;22.58;14.23;;;;;;;;;;5021217;28;20044;-46
2021/07/20 14:00:31;;;;;;;30.45;12.70;;;;;;;;;;5021192;28;20655;-49
2021/07/20 14:02:58;;;;;;;38.55;17.60;;;;;;;;;;5021144;28;20497;-47
2021/07/20 14:05:25;;;;;;;20.73;12.80;;;;;;;;;;5021229;28;20137;-51
2021/07/20 14:07:51;;;;;;;27.90;17.98;;;;;;;;;;5021996;28;20025;-49
2021/07/20 14:10:17;;;;;;;31.85;20.52;;;;;;;;;;5021240;28;20024;-46
2021/07/20 14:12:44;;;;;;;46.70;28.83;;;;;;;;;;5021455;28;20021;-46
2021/07/20 14:15:10;;;;;;;18.77;11.13;;;;;;;;;;5020787;28;20075;-46
2021/07/20 14:17:38;;;;;;;42.25;21.23;;;;;;;;;;5020778;28;20045;-48
2021/07/20 14:20:07;;;;;;;96.60;63.00;;;;;;;;;;5021163;28;20024;-46
2021/07/20 14:22:33;;;;;;;22.73;14.63;;;;;;;;;;5023462;28;20029;-45
2021/07/20 14:24:59;;;;;;;40.40;29.38;;;;;;;;;;5025156;28;20026;-46
2021/07/20 14:27:27;;;;;;;47.67;34.97;;;;;;;;;;5024832;28;20036;-46
2021/07/20 14:29:57;;;;;;;80.80;47.28;;;;;;;;;;5025009;28;20371;-45
2021/07/20 14:32:24;;;;;;;53.47;42.33;;;;;;;;;;5024948;28;20061;-46
2021/07/20 14:34:53;;;;;;;35.50;27.08;;;;;;;;;;5024628;28;20275;-46
2021/07/20 14:37:37;;;;;;;28.02;19.75;;;;;;;;;;5025296;28;20033;-45
2021/07/20 14:40:06;;;;;;;46.10;30.67;;;;;;;;;;5025892;28;20027;-46